Time;durP1;ratioP1;P1;durP2;ratioP2;P2;SDS_P1;SDS_P2;PMS_P1;PMS_P2;Temp;Humidity;BMP_temperature;BMP_pressure;BME280_temperature;BME280_humidity;BME280_pressure;Samples;Min_cycle;Max_cycle;Signal;HPM_P1;HPM_P2
2023/03/18 00:01:18;;;;;;;3.58;2.88;;;16.30;50.90;;;;;;5022713;28;20078;-50
2023/03/18 00:03:50;;;;;;;5.35;3.40;;;16.20;51.20;;;;;;5031629;28;20453;-49
2023/03/18 00:06:21;;;;;;;6.07;3.05;;;16.10;51.40;;;;;;5012451;28;20053;-50
2023/03/18 00:08:56;;;;;;;5.88;2.55;;;16.10;51.70;;;;;;5026183;28;20046;-48
2023/03/18 00:11:24;;;;;;;3.88;2.67;;;16.10;51.80;;;;;;5024746;28;20087;-49
2023/03/18 00:13:52;;;;;;;3.35;2.75;;;16.10;51.90;;;;;;5032077;28;20046;-47
2023/03/18 00:16:20;;;;;;;5.95;3.25;;;16.00;52.10;;;;;;5022788;28;20421;-48
2023/03/18 00:18:49;;;;;;;4.50;2.97;;;16.00;52.30;;;;;;5031216;28;20132;-47
2023/03/18 00:21:25;;;;;;;4.13;2.72;;;16.00;52.50;;;;;;5025328;28;20108;-51
2023/03/18 00:23:55;;;;;;;7.63;3.10;;;16.00;52.70;;;;;;5025715;28;20052;-49
2023/03/18 00:26:25;;;;;;;6.80;3.25;;;16.00;52.60;;;;;;5021904;28;20490;-49
2023/03/18 00:28:56;;;;;;;5.57;3.08;;;16.00;53.00;;;;;;5031489;28;20072;-51
2023/03/18 00:31:28;;;;;;;4.95;3.10;;;16.00;52.80;;;;;;5031834;28;20033;-48
2023/03/18 00:33:57;;;;;;;5.47;3.03;;;16.00;53.10;;;;;;5020355;28;20577;-51
2023/03/18 00:36:29;;;;;;;3.65;2.67;;;16.00;53.10;;;;;;5013531;28;20124;-51
2023/03/18 00:39:02;;;;;;;4.72;3.10;;;16.00;53.10;;;;;;5013807;28;20429;-49
2023/03/18 00:41:37;;;;;;;5.45;2.75;;;16.00;53.20;;;;;;5022813;28;20502;-51
2023/03/18 00:44:04;;;;;;;4.03;2.78;;;16.00;53.30;;;;;;5026412;28;20599;-52
2023/03/18 00:46:35;;;;;;;4.72;2.80;;;16.00;53.40;;;;;;5030691;28;20633;-49
2023/03/18 00:49:09;;;;;;;7.45;2.90;;;16.00;53.50;;;;;;5013336;28;20042;-51
2023/03/18 00:51:37;;;;;;;5.45;2.90;;;16.00;53.70;;;;;;5017255;28;20241;-51
2023/03/18 00:54:09;;;;;;;5.95;3.00;;;16.00;54.00;;;;;;5010213;28;20029;-48
2023/03/18 00:56:37;;;;;;;6.20;3.33;;;16.10;54.50;;;;;;5030490;28;20034;-48
2023/03/18 00:59:06;;;;;;;12.10;4.35;;;16.10;55.10;;;;;;5011201;28;20113;-51
2023/03/18 01:01:38;;;;;;;10.23;3.60;;;16.10;56.20;;;;;;5027130;28;20449;-50
2023/03/18 01:04:05;;;;;;;8.80;4.10;;;16.10;56.80;;;;;;5013478;28;20064;-49
2023/03/18 01:06:38;;;;;;;7.80;3.78;;;16.10;57.10;;;;;;5010944;28;20573;-50
2023/03/18 01:09:10;;;;;;;6.47;3.95;;;16.00;57.30;;;;;;5026932;28;20033;-47
2023/03/18 01:11:41;;;;;;;5.75;3.40;;;16.00;57.70;;;;;;5005478;28;20040;-52
2023/03/18 01:14:08;;;;;;;6.63;3.95;;;15.90;57.70;;;;;;5017292;28;20626;-48
2023/03/18 01:16:35;;;;;;;7.90;4.40;;;15.90;57.90;;;;;;5008305;28;20042;-48
2023/03/18 01:19:05;;;;;;;6.90;4.10;;;15.80;58.20;;;;;;4994948;28;20140;-51
2023/03/18 01:21:32;;;;;;;4.72;4.28;;;15.80;58.60;;;;;;5017242;28;20395;-51
2023/03/18 01:24:07;;;;;;;8.00;4.75;;;15.80;59.00;;;;;;5025032;28;20580;-47
2023/03/18 01:26:38;;;;;;;7.07;4.25;;;15.70;59.60;;;;;;5008176;28;20072;-49
2023/03/18 01:29:11;;;;;;;6.72;3.92;;;15.70;59.80;;;;;;5012657;28;20056;-51
2023/03/18 01:31:42;;;;;;;6.75;4.50;;;15.70;59.80;;;;;;5025658;28;20116;-51
2023/03/18 01:34:16;;;;;;;6.57;4.70;;;15.60;59.80;;;;;;5012607;28;20047;-48
2023/03/18 01:36:48;;;;;;;5.05;3.80;;;15.60;60.30;;;;;;5011865;28;20057;-50
2023/03/18 01:39:24;;;;;;;8.77;5.00;;;15.60;60.10;;;;;;5013322;28;20064;-51
2023/03/18 01:41:53;;;;;;;4.63;4.05;;;15.60;60.40;;;;;;5008381;28;20159;-50
2023/03/18 01:44:30;;;;;;;5.70;3.85;;;15.50;60.40;;;;;;5007594;28;20426;-47
2023/03/18 01:46:58;;;;;;;6.65;4.22;;;15.50;60.60;;;;;;5012171;28;20424;-49
2023/03/18 01:49:47;;;;;;;8.82;5.40;;;15.40;60.60;;;;;;5010978;28;20050;-50
2023/03/18 01:52:22;;;;;;;5.75;4.07;;;15.30;60.60;;;;;;5019347;28;20502;-47
2023/03/18 01:54:57;;;;;;;5.13;3.88;;;15.30;60.90;;;;;;5009725;28;20502;-50
2023/03/18 01:57:26;;;;;;;6.13;3.92;;;15.30;61.20;;;;;;5011665;28;20052;-51
2023/03/18 01:59:57;;;;;;;4.25;3.75;;;15.20;60.60;;;;;;5010228;28;20387;-49
2023/03/18 02:02:25;;;;;;;5.60;3.72;;;15.10;60.60;;;;;;5011547;28;20049;-47
2023/03/18 02:05:02;;;;;;;5.78;4.47;;;15.10;60.50;;;;;;5029640;28;20041;-50
2023/03/18 02:07:35;;;;;;;5.82;4.20;;;15.00;61.40;;;;;;5011095;28;20165;-49
2023/03/18 02:10:12;;;;;;;5.82;4.55;;;14.90;61.20;;;;;;5005660;28;20346;-52
2023/03/18 02:12:46;;;;;;;6.88;4.10;;;14.90;61.60;;;;;;5011896;28;20053;-47
2023/03/18 02:15:22;;;;;;;6.57;4.97;;;14.80;62.00;;;;;;5012123;28;20041;-52
2023/03/18 02:18:08;;;;;;;7.38;4.57;;;14.80;62.20;;;;;;5009434;28;20550;-51
2023/03/18 02:21:00;;;;;;;4.97;4.10;;;14.80;63.50;;;;;;5021811;28;20453;-52
2023/03/18 02:23:47;;;;;;;5.57;3.90;;;14.80;62.80;;;;;;5006042;28;20097;-49
2023/03/18 02:26:56;;;;;;;7.85;4.38;;;14.80;63.00;;;;;;5003463;28;20457;-52
2023/03/18 02:29:34;;;;;;;6.10;4.32;;;14.80;63.10;;;;;;4908543;29;20059;-49
2023/03/18 02:32:07;;;;;;;9.48;5.68;;;14.80;63.40;;;;;;4913262;29;20043;-49
2023/03/18 02:34:37;;;;;;;6.00;4.70;;;14.80;63.50;;;;;;4985939;28;20050;-51
2023/03/18 02:37:10;;;;;;;5.38;4.15;;;14.80;63.20;;;;;;5010520;28;20049;-51
2023/03/18 02:39:39;;;;;;;5.97;4.68;;;14.80;63.20;;;;;;5008572;28;20088;-52
2023/03/18 02:42:15;;;;;;;5.88;4.40;;;14.80;63.10;;;;;;5010112;28;20053;-49
2023/03/18 02:44:51;;;;;;;6.00;4.82;;;14.80;63.50;;;;;;5008045;28;20093;-48
2023/03/18 02:47:45;;;;;;;6.57;4.07;;;14.70;63.10;;;;;;5003523;28;20050;-50
2023/03/18 02:50:19;;;;;;;8.00;4.55;;;14.70;63.30;;;;;;5000938;28;20648;-51
2023/03/18 02:52:57;;;;;;;7.68;5.05;;;14.70;63.20;;;;;;5022785;28;20144;-51
2023/03/18 02:55:26;;;;;;;6.43;4.60;;;14.60;63.10;;;;;;5029542;28;20127;-51
2023/03/18 02:57:57;;;;;;;7.35;4.63;;;14.60;63.30;;;;;;5010739;28;20061;-48
2023/03/18 03:00:24;;;;;;;5.80;4.95;;;14.60;63.90;;;;;;5010133;28;20850;-49
2023/03/18 03:02:55;;;;;;;6.68;4.70;;;14.60;64.00;;;;;;5005740;28;20506;-49
2023/03/18 03:05:25;;;;;;;5.60;4.38;;;14.60;64.30;;;;;;5029247;28;20092;-48
2023/03/18 03:07:54;;;;;;;5.90;4.55;;;14.60;64.40;;;;;;5010641;28;20091;-51
2023/03/18 03:10:21;;;;;;;6.47;4.63;;;14.60;64.50;;;;;;5009411;28;20049;-48
2023/03/18 03:12:51;;;;;;;8.60;4.90;;;14.60;64.60;;;;;;5007556;28;20060;-49
2023/03/18 03:15:22;;;;;;;8.32;4.55;;;14.70;64.60;;;;;;5002923;28;20137;-51
2023/03/18 03:17:55;;;;;;;7.05;4.45;;;14.70;64.50;;;;;;5010570;28;20135;-52
2023/03/18 03:20:25;;;;;;;5.80;4.85;;;14.70;64.50;;;;;;5009529;28;20049;-51
2023/03/18 03:22:54;;;;;;;5.53;4.55;;;14.70;64.50;;;;;;5005740;28;20530;-52
2023/03/18 03:25:21;;;;;;;6.35;4.75;;;14.80;64.60;;;;;;5015047;28;20065;-52
2023/03/18 03:27:48;;;;;;;5.70;4.60;;;14.70;64.60;;;;;;5005061;28;20397;-51
2023/03/18 03:30:19;;;;;;;5.13;4.15;;;14.80;64.60;;;;;;5003921;28;20100;-52
2023/03/18 03:32:46;;;;;;;6.22;4.70;;;14.80;64.70;;;;;;5028811;28;20034;-48
2023/03/18 03:35:17;;;;;;;7.50;4.70;;;14.80;64.80;;;;;;5018951;28;20401;-50
2023/03/18 03:37:44;;;;;;;8.38;5.00;;;14.80;64.90;;;;;;5026180;28;20052;-50
2023/03/18 03:40:16;;;;;;;5.97;3.97;;;14.80;64.80;;;;;;5033196;28;20045;-50
2023/03/18 03:42:50;;;;;;;6.55;4.53;;;14.80;64.60;;;;;;5031032;28;20042;-49
2023/03/18 03:45:24;;;;;;;8.25;5.00;;;14.90;64.60;;;;;;5026449;28;20120;-51
2023/03/18 03:47:55;;;;;;;7.10;4.75;;;14.90;64.60;;;;;;5013870;28;20490;-48
2023/03/18 03:50:23;;;;;;;7.10;5.10;;;14.80;64.40;;;;;;5013579;28;20092;-51
2023/03/18 03:52:49;;;;;;;5.78;4.97;;;14.80;64.60;;;;;;5010024;28;20775;-52
2023/03/18 03:55:20;;;;;;;5.82;5.10;;;14.90;64.60;;;;;;5006901;28;20049;-47
2023/03/18 03:58:05;;;;;;;7.47;4.35;;;14.90;64.80;;;;;;5014094;28;20080;-51
2023/03/18 04:00:35;;;;;;;7.22;5.25;;;14.90;64.90;;;;;;4992776;28;20042;-48
2023/03/18 04:03:02;;;;;;;5.28;4.78;;;14.90;64.70;;;;;;4997547;28;20116;-47
2023/03/18 04:05:32;;;;;;;5.65;4.65;;;14.90;64.80;;;;;;5013885;28;20095;-51
2023/03/18 04:08:04;;;;;;;8.30;4.97;;;14.90;64.80;;;;;;5013718;28;20045;-48
2023/03/18 04:10:35;;;;;;;5.97;4.45;;;14.90;65.10;;;;;;5008503;28;20034;-52
2023/03/18 04:13:04;;;;;;;6.93;4.68;;;14.90;65.00;;;;;;5013923;28;20042;-50
2023/03/18 04:15:38;;;;;;;9.43;4.60;;;14.90;65.10;;;;;;5014460;28;20486;-52
2023/03/18 04:18:13;;;;;;;5.57;4.65;;;15.00;65.00;;;;;;5006848;28;20052;-51
2023/03/18 04:20:40;;;;;;;5.70;4.38;;;14.90;65.20;;;;;;5012474;28;20037;-51
2023/03/18 04:23:16;;;;;;;7.65;4.88;;;15.00;65.00;;;;;;5004196;28;20513;-48
2023/03/18 04:25:47;;;;;;;6.43;4.88;;;15.00;65.10;;;;;;5001973;28;20042;-50
2023/03/18 04:28:15;;;;;;;7.43;5.40;;;14.90;65.00;;;;;;5012976;28;20612;-51
2023/03/18 04:30:47;;;;;;;5.13;4.15;;;14.90;65.00;;;;;;5014389;28;20043;-47
2023/03/18 04:33:19;;;;;;;8.73;4.82;;;15.00;65.30;;;;;;5012734;28;20046;-47
2023/03/18 04:35:48;;;;;;;6.53;5.47;;;15.00;64.90;;;;;;4997472;28;20045;-49
2023/03/18 04:38:17;;;;;;;7.65;5.05;;;14.90;64.80;;;;;;5013269;28;20045;-49
2023/03/18 04:40:57;;;;;;;8.50;5.13;;;15.00;64.90;;;;;;5013333;28;20500;-51
2023/03/18 04:43:26;;;;;;;7.30;4.45;;;15.00;65.10;;;;;;5010472;28;20152;-47
2023/03/18 04:45:53;;;;;;;7.75;5.32;;;14.90;64.60;;;;;;5013764;28;20048;-48
2023/03/18 04:48:20;;;;;;;6.70;4.85;;;14.90;64.80;;;;;;5009965;28;20033;-51
2023/03/18 04:50:53;;;;;;;5.23;4.73;;;14.90;64.80;;;;;;5011846;28;20536;-49
2023/03/18 04:53:25;;;;;;;7.47;5.03;;;14.90;64.60;;;;;;5008644;28;20049;-47
2023/03/18 04:55:54;;;;;;;6.40;4.85;;;14.90;64.70;;;;;;5013427;28;20041;-47
2023/03/18 04:58:26;;;;;;;;;;;14.90;64.80;;;;;;5006579;28;20045;-48
2023/03/18 05:01:07;;;;;;;7.85;4.40;;;14.90;65.10;;;;;;5009914;28;20012;-49
2023/03/18 05:03:36;;;;;;;8.52;4.72;;;14.80;64.30;;;;;;5029887;28;20036;-51
2023/03/18 05:06:05;;;;;;;8.48;5.18;;;14.90;64.60;;;;;;5013036;28;20060;-48
2023/03/18 05:08:50;;;;;;;8.75;4.88;;;14.80;64.70;;;;;;5011533;28;20046;-50
2023/03/18 05:11:23;;;;;;;7.00;4.70;;;14.80;64.80;;;;;;5006003;28;20038;-48
2023/03/18 05:13:52;;;;;;;7.93;5.20;;;14.80;64.90;;;;;;5013039;28;20048;-50
2023/03/18 05:16:19;;;;;;;8.25;4.53;;;14.80;65.30;;;;;;5008716;28;20570;-51
2023/03/18 05:18:53;;;;;;;7.05;5.35;;;14.80;65.10;;;;;;5008824;28;20638;-49
2023/03/18 05:21:22;;;;;;;9.05;5.13;;;14.80;65.20;;;;;;5012008;28;20044;-49
2023/03/18 05:23:50;;;;;;;6.95;4.70;;;14.80;65.10;;;;;;5004437;28;20048;-47
2023/03/18 05:26:20;;;;;;;6.50;4.72;;;14.80;65.30;;;;;;5012170;28;20495;-50
2023/03/18 05:28:56;;;;;;;7.72;5.45;;;14.80;65.30;;;;;;5012840;28;20046;-48
2023/03/18 05:31:37;;;;;;;6.53;4.65;;;14.70;65.20;;;;;;4997002;28;20064;-49
2023/03/18 05:34:06;;;;;;;7.10;5.30;;;14.70;65.10;;;;;;5008308;28;20046;-48
2023/03/18 05:36:35;;;;;;;7.57;5.03;;;14.60;65.10;;;;;;5012904;28;20037;-48
2023/03/18 05:39:13;;;;;;;5.57;4.88;;;14.60;65.10;;;;;;5013247;28;20041;-50
2023/03/18 05:41:47;;;;;;;7.43;5.00;;;14.60;65.10;;;;;;4997455;28;20038;-49
2023/03/18 05:44:23;;;;;;;7.60;5.10;;;14.50;65.10;;;;;;5012754;28;20042;-49
2023/03/18 05:46:54;;;;;;;7.97;5.10;;;14.40;65.00;;;;;;5012464;28;20409;-50
2023/03/18 05:49:40;;;;;;;7.68;4.90;;;14.30;65.10;;;;;;5021409;28;20518;-49
2023/03/18 05:52:27;;;;;;;6.55;5.40;;;14.30;65.20;;;;;;5005965;28;20053;-47
2023/03/18 05:55:01;;;;;;;5.38;4.60;;;14.20;65.10;;;;;;5013278;28;20057;-49
2023/03/18 05:57:32;;;;;;;6.25;5.05;;;14.10;65.10;;;;;;5012305;28;20606;-50
2023/03/18 06:00:03;;;;;;;6.93;4.75;;;14.10;65.00;;;;;;5009669;28;20558;-48
2023/03/18 06:02:43;;;;;;;6.85;5.55;;;14.00;65.10;;;;;;5029689;28;20107;-50
2023/03/18 06:05:15;;;;;;;6.63;5.77;;;14.00;65.10;;;;;;5030777;28;20462;-49
2023/03/18 06:07:47;;;;;;;6.60;5.72;;;13.90;65.10;;;;;;5004656;28;20137;-49
2023/03/18 06:10:17;;;;;;;8.50;5.35;;;13.80;65.30;;;;;;5029691;28;20045;-50
2023/03/18 06:12:48;;;;;;;7.68;5.82;;;13.80;65.70;;;;;;4995850;28;20037;-48
2023/03/18 06:15:29;;;;;;;6.78;5.60;;;13.70;65.80;;;;;;5012441;28;20136;-48
2023/03/18 06:17:56;;;;;;;7.97;4.95;;;13.70;66.00;;;;;;5019566;28;20057;-52
2023/03/18 06:20:34;;;;;;;8.55;5.72;;;13.70;66.20;;;;;;5021035;28;20050;-48
2023/03/18 06:23:04;;;;;;;7.07;5.35;;;13.60;66.80;;;;;;5006434;28;20054;-49
2023/03/18 06:25:33;;;;;;;6.82;5.50;;;13.60;66.60;;;;;;5000997;28;20037;-50
2023/03/18 06:28:03;;;;;;;7.47;5.10;;;13.60;66.70;;;;;;5016927;28;20048;-47
2023/03/18 06:30:31;;;;;;;7.28;5.50;;;13.60;66.80;;;;;;4996746;28;20465;-48
2023/03/18 06:32:59;;;;;;;6.35;4.82;;;13.60;66.80;;;;;;5008553;28;20045;-49
2023/03/18 06:35:26;;;;;;;6.07;5.28;;;13.50;66.90;;;;;;5011977;28;20041;-48
2023/03/18 06:37:53;;;;;;;6.85;5.53;;;13.50;66.80;;;;;;5006204;28;20045;-51
2023/03/18 06:40:34;;;;;;;7.20;5.10;;;13.50;66.90;;;;;;5012852;28;20053;-50
2023/03/18 06:43:03;;;;;;;5.63;4.80;;;13.50;67.00;;;;;;5025424;28;20041;-49
2023/03/18 06:45:36;;;;;;;5.35;4.72;;;13.50;67.20;;;;;;4996271;28;20041;-49
2023/03/18 06:48:06;;;;;;;5.82;4.75;;;13.50;67.30;;;;;;5011344;28;20084;-47
2023/03/18 06:50:44;;;;;;;7.43;5.43;;;13.50;67.50;;;;;;5008966;28;20050;-50
2023/03/18 06:53:22;;;;;;;5.35;4.18;;;13.50;67.60;;;;;;5015975;28;20042;-50
2023/03/18 06:55:52;;;;;;;4.18;3.78;;;13.50;67.50;;;;;;5012054;28;20061;-50
2023/03/18 06:58:23;;;;;;;5.10;4.20;;;13.50;67.60;;;;;;5011790;28;20077;-47
2023/03/18 07:00:59;;;;;;;4.93;4.43;;;13.60;67.70;;;;;;5009457;28;20051;-50
2023/03/18 07:03:38;;;;;;;5.55;4.07;;;13.60;67.80;;;;;;5003542;28;20054;-47
2023/03/18 07:06:17;;;;;;;5.18;4.53;;;13.60;68.10;;;;;;5004887;28;20107;-49
2023/03/18 07:08:44;;;;;;;5.60;3.25;;;13.60;67.90;;;;;;5001980;28;20080;-47
2023/03/18 07:11:13;;;;;;;4.05;3.13;;;13.60;68.00;;;;;;5001858;28;20042;-51
2023/03/18 07:13:42;;;;;;;5.72;4.22;;;13.70;68.10;;;;;;5014138;28;20552;-50
2023/03/18 07:16:16;;;;;;;5.20;3.72;;;13.70;68.10;;;;;;5014532;28;20045;-51
2023/03/18 07:18:52;;;;;;;7.40;3.97;;;13.80;68.10;;;;;;5012023;28;20041;-47
2023/03/18 07:21:24;;;;;;;5.40;3.85;;;13.80;68.30;;;;;;5007614;28;20107;-47
2023/03/18 07:23:53;;;;;;;5.28;3.50;;;13.80;67.90;;;;;;5003877;28;20063;-51
2023/03/18 07:26:23;;;;;;;5.93;3.75;;;13.80;68.10;;;;;;5011757;28;20057;-49
2023/03/18 07:28:51;;;;;;;5.45;3.67;;;13.90;67.90;;;;;;5004049;28;20107;-47
2023/03/18 07:31:18;;;;;;;4.70;3.25;;;13.90;68.00;;;;;;4999997;28;20041;-50
2023/03/18 07:33:45;;;;;;;4.72;4.03;;;14.00;67.90;;;;;;5009407;28;20399;-49
2023/03/18 07:36:13;;;;;;;4.78;3.45;;;14.00;67.80;;;;;;5007203;28;20524;-47
2023/03/18 07:38:40;;;;;;;4.13;3.25;;;14.10;67.80;;;;;;5025681;28;20084;-48
2023/03/18 07:41:07;;;;;;;4.30;3.72;;;14.10;67.60;;;;;;5031095;28;20042;-51
2023/03/18 07:43:35;;;;;;;4.68;3.35;;;14.10;67.50;;;;;;5029207;28;20056;-48
2023/03/18 07:46:03;;;;;;;4.40;3.45;;;14.20;67.60;;;;;;5024109;28;20116;-48
2023/03/18 07:48:30;;;;;;;3.38;3.08;;;14.20;67.30;;;;;;5032208;28;20037;-49
2023/03/18 07:50:58;;;;;;;5.50;3.58;;;14.20;67.40;;;;;;5029150;28;20047;-51
2023/03/18 07:53:26;;;;;;;5.18;4.10;;;14.20;67.30;;;;;;5020341;28;20057;-50
2023/03/18 07:55:56;;;;;;;5.15;3.75;;;14.30;67.30;;;;;;5031075;28;20068;-50
2023/03/18 07:58:23;;;;;;;5.63;3.40;;;14.30;67.30;;;;;;5031633;28;20080;-48
2023/03/18 08:00:51;;;;;;;5.07;3.90;;;14.40;67.30;;;;;;5027069;28;20042;-48
2023/03/18 08:03:18;;;;;;;4.05;3.50;;;14.40;67.30;;;;;;5032725;28;20044;-51
2023/03/18 08:05:45;;;;;;;5.90;3.70;;;14.40;67.20;;;;;;5033052;28;20033;-50
2023/03/18 08:08:12;;;;;;;4.07;3.65;;;14.40;67.20;;;;;;5012048;28;20073;-51
2023/03/18 08:10:38;;;;;;;3.92;3.08;;;14.50;67.30;;;;;;5024558;28;20038;-49
2023/03/18 08:13:05;;;;;;;6.30;4.20;;;14.50;67.30;;;;;;5029245;28;20049;-48
2023/03/18 08:15:32;;;;;;;3.95;3.47;;;14.60;67.30;;;;;;5031530;28;20052;-47
2023/03/18 08:17:59;;;;;;;5.38;3.25;;;14.60;67.20;;;;;;5025260;28;20072;-49
2023/03/18 08:20:26;;;;;;;3.70;3.28;;;14.70;67.00;;;;;;5024075;28;20053;-47
2023/03/18 08:22:53;;;;;;;4.82;3.15;;;14.80;66.90;;;;;;5024976;28;20049;-51
2023/03/18 08:25:21;;;;;;;4.75;3.05;;;14.80;67.50;;;;;;5026633;28;20046;-51
2023/03/18 08:27:49;;;;;;;4.28;3.10;;;14.90;67.50;;;;;;5025333;28;20042;-48
2023/03/18 08:30:18;;;;;;;4.30;3.40;;;15.00;66.70;;;;;;5020543;28;20406;-51
2023/03/18 08:32:45;;;;;;;3.75;2.90;;;15.00;66.60;;;;;;5024385;28;20041;-51
2023/03/18 08:35:15;;;;;;;4.63;2.85;;;15.20;66.60;;;;;;5024812;28;20124;-49
2023/03/18 08:37:42;;;;;;;4.72;2.88;;;15.20;66.40;;;;;;5024286;28;20073;-51
2023/03/18 08:40:10;;;;;;;5.03;2.97;;;15.30;67.00;;;;;;5011104;28;20087;-48
2023/03/18 08:42:37;;;;;;;3.10;2.63;;;15.40;66.10;;;;;;5029587;28;20513;-49
2023/03/18 08:45:04;;;;;;;5.07;3.13;;;15.50;66.10;;;;;;5019220;28;20125;-49
2023/03/18 08:47:31;;;;;;;3.00;2.50;;;15.60;65.80;;;;;;5030126;28;20033;-50
2023/03/18 08:50:00;;;;;;;5.10;3.45;;;15.70;65.60;;;;;;5030981;28;20048;-49
2023/03/18 08:52:31;;;;;;;2.53;2.30;;;15.70;65.40;;;;;;5025060;28;20052;-48
2023/03/18 08:54:57;;;;;;;5.07;2.78;;;15.80;65.20;;;;;;5025559;28;20041;-48
2023/03/18 08:57:25;;;;;;;3.28;2.53;;;15.90;65.10;;;;;;5024709;28;20033;-52
2023/03/18 08:59:52;;;;;;;2.70;2.30;;;16.00;64.80;;;;;;5022150;28;20116;-50
2023/03/18 09:02:19;;;;;;;3.60;3.30;;;16.10;64.70;;;;;;5030444;28;20057;-50
2023/03/18 09:04:47;;;;;;;3.60;2.80;;;16.10;64.80;;;;;;5030893;28;20040;-49
2023/03/18 09:07:13;;;;;;;4.60;3.10;;;16.20;64.40;;;;;;5027395;28;20092;-51
2023/03/18 09:09:43;;;;;;;3.45;3.15;;;16.30;64.20;;;;;;5024221;28;20037;-48
2023/03/18 09:12:11;;;;;;;2.78;2.50;;;16.30;64.20;;;;;;5023384;28;20433;-48
2023/03/18 09:14:39;;;;;;;4.65;2.95;;;16.40;63.90;;;;;;5024200;28;20045;-51
2023/03/18 09:17:08;;;;;;;4.68;2.92;;;16.40;63.70;;;;;;5026668;28;20045;-49
2023/03/18 09:19:36;;;;;;;3.55;2.72;;;16.50;63.40;;;;;;5030499;28;20045;-48
2023/03/18 09:22:03;;;;;;;3.42;2.30;;;16.50;63.30;;;;;;5018915;28;20052;-49
2023/03/18 09:24:30;;;;;;;3.97;2.47;;;16.50;63.20;;;;;;5030027;28;20046;-49
2023/03/18 09:26:58;;;;;;;2.63;2.38;;;16.50;63.10;;;;;;5029793;28;20040;-51
2023/03/18 09:29:26;;;;;;;2.67;2.17;;;16.60;62.90;;;;;;5029240;28;20553;-47
2023/03/18 09:31:53;;;;;;;2.67;2.15;;;16.60;62.90;;;;;;5022376;28;20120;-47
2023/03/18 09:34:19;;;;;;;2.72;2.25;;;16.60;62.70;;;;;;5030893;28;20129;-49
2023/03/18 09:36:50;;;;;;;3.53;2.25;;;16.60;62.70;;;;;;5029142;28;20992;-52
2023/03/18 09:39:20;;;;;;;2.30;2.10;;;16.60;62.60;;;;;;5029227;28;20416;-48
2023/03/18 09:42:04;;;;;;;4.68;3.30;;;16.60;62.80;;;;;;5018166;28;20041;-48
2023/03/18 09:44:34;;;;;;;2.17;1.50;;;16.60;62.80;;;;;;5028222;28;20049;-52
2023/03/18 09:47:20;;;;;;;3.53;1.50;;;16.70;62.40;;;;;;5029807;28;20045;-52
2023/03/18 09:49:59;;;;;;;2.15;1.95;;;16.70;62.10;;;;;;5026522;28;20111;-51
2023/03/18 09:52:33;;;;;;;1.80;1.70;;;16.70;62.00;;;;;;5023300;28;20045;-52
2023/03/18 09:55:23;;;;;;;1.95;1.50;;;16.70;62.30;;;;;;5008368;28;20053;-52
2023/03/18 09:57:54;;;;;;;1.90;1.45;;;16.70;62.60;;;;;;5024201;28;20045;-49
2023/03/18 10:00:32;;;;;;;1.50;1.40;;;16.80;62.20;;;;;;5028350;28;20060;-49
2023/03/18 10:03:10;;;;;;;1.85;1.73;;;16.80;61.70;;;;;;5023095;28;20103;-50
2023/03/18 10:06:01;;;;;;;2.65;1.70;;;16.80;62.00;;;;;;5029364;28;20045;-50
2023/03/18 10:08:46;;;;;;;1.92;1.52;;;16.80;61.40;;;;;;5029098;28;20045;-52
2023/03/18 10:11:40;;;;;;;2.22;1.90;;;16.90;61.50;;;;;;5021390;28;20045;-51
2023/03/18 10:14:36;;;;;;;1.73;1.63;;;17.00;61.30;;;;;;5024906;28;20069;-48
2023/03/18 10:17:10;;;;;;;3.00;1.85;;;17.00;61.10;;;;;;5027201;28;20043;-51
2023/03/18 10:19:40;;;;;;;;;;;17.00;61.10;;;;;;5027499;28;20513;-51
2023/03/18 10:22:13;;;;;;;2.08;1.42;;;17.10;61.30;;;;;;5026169;28;20293;-48
2023/03/18 10:24:46;;;;;;;2.28;2.08;;;17.20;61.20;;;;;;5022244;28;20044;-48
2023/03/18 10:27:37;;;;;;;1.48;1.38;;;17.20;61.30;;;;;;5029623;28;20488;-49
2023/03/18 10:30:23;;;;;;;2.15;1.60;;;17.30;61.50;;;;;;5022867;28;20418;-50
2023/03/18 10:33:16;;;;;;;2.10;1.95;;;17.40;61.60;;;;;;5023955;28;20041;-52
2023/03/18 10:36:04;;;;;;;2.97;1.55;;;17.60;61.40;;;;;;5022526;28;20041;-50
2023/03/18 10:38:37;;;;;;;1.50;1.20;;;17.70;61.10;;;;;;5026416;28;20067;-49
2023/03/18 10:41:24;;;;;;;1.42;1.33;;;17.90;60.80;;;;;;5007781;28;20124;-51
2023/03/18 10:43:55;;;;;;;2.40;1.40;;;18.00;59.50;;;;;;5027718;28;20049;-51
2023/03/18 10:46:24;;;;;;;2.55;1.52;;;18.20;59.90;;;;;;5026092;28;20038;-51
2023/03/18 10:48:56;;;;;;;1.42;1.33;;;18.30;59.80;;;;;;5028898;28;20045;-51
2023/03/18 10:51:34;;;;;;;2.20;1.23;;;18.40;58.40;;;;;;5023818;28;20045;-48
2023/03/18 10:54:28;;;;;;;1.48;1.38;;;18.40;58.10;;;;;;5023131;28;20059;-52
2023/03/18 10:56:55;;;;;;;1.33;1.05;;;18.50;57.00;;;;;;5023112;28;20038;-50
2023/03/18 10:59:24;;;;;;;2.00;1.17;;;18.50;57.40;;;;;;5018883;28;20431;-51
2023/03/18 11:02:00;;;;;;;1.90;0.95;;;18.50;57.70;;;;;;5028744;28;20041;-49
2023/03/18 11:04:30;;;;;;;2.40;1.55;;;18.50;57.50;;;;;;5029827;28;20502;-47
2023/03/18 11:07:01;;;;;;;1.92;1.00;;;18.50;57.40;;;;;;5010651;28;20518;-50
2023/03/18 11:09:41;;;;;;;1.08;0.73;;;18.50;57.40;;;;;;5020834;28;20513;-51
2023/03/18 11:12:17;;;;;;;2.03;1.17;;;18.60;57.30;;;;;;5022084;28;20057;-52
2023/03/18 11:14:49;;;;;;;1.15;1.00;;;18.70;56.70;;;;;;5022122;28;20220;-50
2023/03/18 11:17:24;;;;;;;1.20;0.95;;;18.80;57.00;;;;;;5021419;28;20041;-51
2023/03/18 11:20:06;;;;;;;1.73;1.13;;;18.80;57.30;;;;;;5023420;28;20045;-49
2023/03/18 11:22:36;;;;;;;1.08;0.95;;;19.00;56.50;;;;;;5025474;28;20046;-47
2023/03/18 11:25:16;;;;;;;1.52;1.20;;;19.10;56.50;;;;;;5010655;28;20132;-50
2023/03/18 11:27:50;;;;;;;1.05;1.00;;;19.30;55.90;;;;;;5021528;28;20521;-52
2023/03/18 11:30:25;;;;;;;0.80;0.80;;;19.50;55.70;;;;;;5028242;28;20041;-51
2023/03/18 11:33:15;;;;;;;1.98;0.98;;;19.70;56.40;;;;;;5024222;28;20048;-51
2023/03/18 11:35:51;;;;;;;2.80;0.90;;;19.90;55.20;;;;;;5020667;28;20452;-52
2023/03/18 11:38:27;;;;;;;1.30;0.82;;;20.10;54.10;;;;;;5029501;28;20037;-52
2023/03/18 11:41:17;;;;;;;1.55;0.93;;;20.20;53.50;;;;;;5021573;28;20580;-52
2023/03/18 11:44:00;;;;;;;1.55;0.93;;;20.30;53.10;;;;;;5019045;28;20045;-52
2023/03/18 11:46:36;;;;;;;1.10;0.90;;;20.40;53.20;;;;;;5005779;28;21051;-52
2023/03/18 11:49:03;;;;;;;0.70;0.68;;;20.50;52.90;;;;;;5027890;28;20038;-52
2023/03/18 11:51:45;;;;;;;1.02;0.70;;;20.50;52.60;;;;;;5018776;28;20041;-52
2023/03/18 11:54:28;;;;;;;0.52;0.45;;;20.60;51.60;;;;;;5019639;28;20053;-50
2023/03/18 11:57:07;;;;;;;2.17;1.42;;;20.60;51.00;;;;;;5021084;28;20034;-49
2023/03/18 12:00:04;;;;;;;1.67;0.70;;;20.60;51.40;;;;;;5029572;28;20063;-52
2023/03/18 12:02:51;;;;;;;1.00;0.75;;;20.60;50.70;;;;;;5021901;28;20124;-51
2023/03/18 12:06:04;;;;;;;2.08;0.63;;;20.60;50.60;;;;;;5031320;28;20041;-52
2023/03/18 12:09:09;;;;;;;1.23;0.60;;;20.60;50.70;;;;;;5030940;28;20049;-50
2023/03/18 12:12:19;;;;;;;2.78;0.68;;;20.50;50.40;;;;;;5026936;28;20045;-49
2023/03/18 12:15:06;;;;;;;0.82;0.47;;;20.50;50.80;;;;;;4994358;28;20050;-48
2023/03/18 12:17:58;;;;;;;1.80;0.50;;;20.50;50.20;;;;;;5029190;28;20047;-51
2023/03/18 12:20:49;;;;;;;1.45;0.85;;;20.50;49.80;;;;;;5011410;28;20056;-49
2023/03/18 12:23:28;;;;;;;1.30;0.40;;;20.60;49.80;;;;;;5027561;28;20527;-51
2023/03/18 12:26:14;;;;;;;1.05;0.50;;;20.70;49.00;;;;;;5008150;28;20053;-50
2023/03/18 12:28:45;;;;;;;0.90;0.30;;;20.70;48.70;;;;;;5030307;28;20112;-52
2023/03/18 12:31:27;;;;;;;1.15;0.68;;;20.70;49.00;;;;;;5031666;28;20041;-52
2023/03/18 12:33:57;;;;;;;0.60;0.47;;;20.70;48.60;;;;;;5026151;28;20083;-51
2023/03/18 12:36:45;;;;;;;0.98;0.32;;;20.60;48.90;;;;;;5024815;28;20072;-47
2023/03/18 12:39:26;;;;;;;2.00;0.77;;;20.50;48.60;;;;;;5021886;28;20092;-52
2023/03/18 12:42:16;;;;;;;2.50;1.10;;;20.40;48.70;;;;;;5030759;28;20038;-50
2023/03/18 12:45:00;;;;;;;1.45;0.60;;;20.30;48.70;;;;;;5020468;28;20045;-50
2023/03/18 12:47:31;;;;;;;3.83;1.00;;;20.20;49.40;;;;;;5024283;28;20042;-47
2023/03/18 12:50:20;;;;;;;1.73;0.90;;;20.00;50.10;;;;;;5031487;28;20071;-52
2023/03/18 12:53:16;;;;;;;1.27;0.70;;;19.90;51.40;;;;;;5028589;28;20049;-49
2023/03/18 12:55:53;;;;;;;0.82;0.60;;;19.70;51.70;;;;;;5006332;28;20069;-50
2023/03/18 12:58:27;;;;;;;1.42;0.82;;;19.60;52.40;;;;;;5031742;28;20517;-52
2023/03/18 13:01:08;;;;;;;0.90;0.70;;;19.50;52.40;;;;;;5021661;28;20445;-51
2023/03/18 13:03:39;;;;;;;2.08;0.90;;;19.30;52.60;;;;;;5030858;28;20049;-49
2023/03/18 13:06:13;;;;;;;1.25;1.00;;;19.30;53.30;;;;;;5031918;28;20069;-49
2023/03/18 13:09:31;;;;;;;1.80;1.13;;;19.10;53.90;;;;;;5030798;28;20045;-49
2023/03/18 13:12:17;;;;;;;1.88;1.17;;;19.00;54.10;;;;;;4917850;29;20075;-50
2023/03/18 13:15:01;;;;;;;2.47;1.17;;;18.90;54.90;;;;;;5021792;28;20666;-51
2023/03/18 13:17:37;;;;;;;1.70;1.30;;;18.80;55.30;;;;;;5030221;28;20040;-49
2023/03/18 13:20:13;;;;;;;1.35;1.25;;;18.70;56.90;;;;;;5031147;28;20067;-52
2023/03/18 13:22:44;;;;;;;1.70;1.25;;;18.60;57.10;;;;;;5023330;28;20054;-52